sensor_id;sensor_type;location;lat;lon;timestamp;pressure;altitude;pressure_sealevel;temperature;humidity
10921;BME280;5513;50.580;8.818;2023-12-22T00:01:51;97478.34;;;5.99;100.00
10921;BME280;5513;50.580;8.818;2023-12-22T00:04:38;97491.56;;;5.98;100.00
10921;BME280;5513;50.580;8.818;2023-12-22T00:07:25;97482.47;;;5.91;100.00
10921;BME280;5513;50.580;8.818;2023-12-22T00:10:12;97487.59;;;5.92;100.00
10921;BME280;5513;50.580;8.818;2023-12-22T00:12:59;97491.47;;;5.99;100.00
10921;BME280;5513;50.580;8.818;2023-12-22T00:15:47;97490.81;;;6.09;100.00
10921;BME280;5513;50.580;8.818;2023-12-22T00:18:34;97508.72;;;6.15;100.00
10921;BME280;5513;50.580;8.818;2023-12-22T00:21:22;97517.13;;;6.20;100.00
10921;BME280;5513;50.580;8.818;2023-12-22T00:24:09;97516.91;;;6.23;100.00
10921;BME280;5513;50.580;8.818;2023-12-22T00:26:56;97511.53;;;6.24;100.00
10921;BME280;5513;50.580;8.818;2023-12-22T00:29:43;97512.88;;;6.30;100.00
10921;BME280;5513;50.580;8.818;2023-12-22T00:32:31;97510.53;;;6.38;100.00
10921;BME280;5513;50.580;8.818;2023-12-22T00:35:18;97513.56;;;6.56;100.00
10921;BME280;5513;50.580;8.818;2023-12-22T00:38:05;97505.47;;;6.59;100.00
10921;BME280;5513;50.580;8.818;2023-12-22T00:40:52;97497.44;;;6.49;100.00
10921;BME280;5513;50.580;8.818;2023-12-22T00:43:39;97501.75;;;6.50;100.00
10921;BME280;5513;50.580;8.818;2023-12-22T00:46:26;97510.59;;;6.49;100.00
10921;BME280;5513;50.580;8.818;2023-12-22T00:49:13;97515.84;;;6.49;100.00
10921;BME280;5513;50.580;8.818;2023-12-22T00:52:00;97518.47;;;6.49;100.00
10921;BME280;5513;50.580;8.818;2023-12-22T00:54:47;97522.69;;;6.28;100.00
10921;BME280;5513;50.580;8.818;2023-12-22T00:57:34;97537.81;;;6.24;100.00
10921;BME280;5513;50.580;8.818;2023-12-22T01:00:21;97550.22;;;5.98;100.00
10921;BME280;5513;50.580;8.818;2023-12-22T01:03:08;97553.88;;;5.96;100.00
10921;BME280;5513;50.580;8.818;2023-12-22T01:05:58;97567.88;;;5.84;100.00
10921;BME280;5513;50.580;8.818;2023-12-22T01:08:45;97581.34;;;5.79;100.00
10921;BME280;5513;50.580;8.818;2023-12-22T01:11:35;97582.47;;;5.75;100.00
10921;BME280;5513;50.580;8.818;2023-12-22T01:14:22;97583.97;;;5.79;100.00
10921;BME280;5513;50.580;8.818;2023-12-22T01:17:08;97575.88;;;5.82;100.00
10921;BME280;5513;50.580;8.818;2023-12-22T01:19:55;97580.81;;;5.74;100.00
10921;BME280;5513;50.580;8.818;2023-12-22T01:22:43;97568.22;;;5.79;100.00
10921;BME280;5513;50.580;8.818;2023-12-22T01:25:30;97579.63;;;5.78;100.00
10921;BME280;5513;50.580;8.818;2023-12-22T01:28:17;97564.94;;;5.75;100.00
10921;BME280;5513;50.580;8.818;2023-12-22T01:31:04;97570.41;;;5.72;100.00
10921;BME280;5513;50.580;8.818;2023-12-22T01:33:51;97576.63;;;5.71;100.00
10921;BME280;5513;50.580;8.818;2023-12-22T01:36:38;97576.19;;;5.65;100.00
10921;BME280;5513;50.580;8.818;2023-12-22T01:39:26;97564.84;;;5.64;100.00
10921;BME280;5513;50.580;8.818;2023-12-22T01:42:13;97587.00;;;5.73;100.00
10921;BME280;5513;50.580;8.818;2023-12-22T01:45:00;97568.53;;;5.62;100.00
10921;BME280;5513;50.580;8.818;2023-12-22T01:47:47;97554.34;;;5.64;100.00
10921;BME280;5513;50.580;8.818;2023-12-22T01:50:34;97549.63;;;5.69;100.00
10921;BME280;5513;50.580;8.818;2023-12-22T01:53:24;97554.88;;;5.57;100.00
10921;BME280;5513;50.580;8.818;2023-12-22T01:56:12;97562.75;;;5.57;100.00
10921;BME280;5513;50.580;8.818;2023-12-22T01:59:00;97561.81;;;5.58;100.00
10921;BME280;5513;50.580;8.818;2023-12-22T02:01:48;97569.69;;;5.58;100.00
10921;BME280;5513;50.580;8.818;2023-12-22T02:04:35;97575.03;;;5.56;100.00
10921;BME280;5513;50.580;8.818;2023-12-22T02:07:21;97570.25;;;5.50;100.00
10921;BME280;5513;50.580;8.818;2023-12-22T02:10:09;97574.63;;;5.50;100.00
10921;BME280;5513;50.580;8.818;2023-12-22T02:12:57;97565.06;;;5.61;100.00
10921;BME280;5513;50.580;8.818;2023-12-22T02:15:45;97564.97;;;5.63;100.00
10921;BME280;5513;50.580;8.818;2023-12-22T02:18:35;97570.09;;;5.64;100.00
10921;BME280;5513;50.580;8.818;2023-12-22T02:21:25;97573.78;;;5.62;100.00
10921;BME280;5513;50.580;8.818;2023-12-22T02:24:13;97571.97;;;5.75;100.00
10921;BME280;5513;50.580;8.818;2023-12-22T02:27:04;97580.38;;;5.67;100.00
10921;BME280;5513;50.580;8.818;2023-12-22T02:29:54;97581.16;;;5.69;100.00
10921;BME280;5513;50.580;8.818;2023-12-22T02:32:48;97585.63;;;5.67;100.00
10921;BME280;5513;50.580;8.818;2023-12-22T02:35:36;97592.25;;;5.73;100.00
10921;BME280;5513;50.580;8.818;2023-12-22T02:38:24;97594.38;;;5.55;100.00
10921;BME280;5513;50.580;8.818;2023-12-22T02:41:13;97573.91;;;5.60;100.00
10921;BME280;5513;50.580;8.818;2023-12-22T02:44:01;97561.41;;;5.51;100.00
10921;BME280;5513;50.580;8.818;2023-12-22T02:46:48;97563.59;;;5.57;100.00
10921;BME280;5513;50.580;8.818;2023-12-22T02:49:35;97562.44;;;5.49;100.00
10921;BME280;5513;50.580;8.818;2023-12-22T02:52:22;97556.47;;;5.46;100.00
10921;BME280;5513;50.580;8.818;2023-12-22T02:55:09;97560.97;;;5.44;100.00
10921;BME280;5513;50.580;8.818;2023-12-22T02:57:57;97567.81;;;5.47;100.00
10921;BME280;5513;50.580;8.818;2023-12-22T03:00:44;97582.63;;;5.35;100.00
10921;BME280;5513;50.580;8.818;2023-12-22T03:03:31;97581.34;;;5.28;100.00
10921;BME280;5513;50.580;8.818;2023-12-22T03:06:18;97587.88;;;5.35;100.00
10921;BME280;5513;50.580;8.818;2023-12-22T03:09:05;97608.66;;;5.26;100.00
10921;BME280;5513;50.580;8.818;2023-12-22T03:11:52;97588.38;;;5.28;100.00
10921;BME280;5513;50.580;8.818;2023-12-22T03:14:43;97563.59;;;5.19;100.00
10921;BME280;5513;50.580;8.818;2023-12-22T03:17:30;97561.59;;;4.97;100.00
10921;BME280;5513;50.580;8.818;2023-12-22T03:20:17;97558.03;;;4.98;100.00
10921;BME280;5513;50.580;8.818;2023-12-22T03:23:03;97578.75;;;4.76;100.00
10921;BME280;5513;50.580;8.818;2023-12-22T03:25:50;97603.00;;;4.79;100.00
10921;BME280;5513;50.580;8.818;2023-12-22T03:28:37;97607.47;;;4.65;100.00
10921;BME280;5513;50.580;8.818;2023-12-22T03:31:25;97617.66;;;4.69;100.00
10921;BME280;5513;50.580;8.818;2023-12-22T03:34:12;97619.75;;;4.64;100.00
10921;BME280;5513;50.580;8.818;2023-12-22T03:36:59;97637.16;;;4.65;100.00
10921;BME280;5513;50.580;8.818;2023-12-22T03:39:46;97635.16;;;4.69;100.00
10921;BME280;5513;50.580;8.818;2023-12-22T03:42:33;97620.66;;;4.63;100.00
10921;BME280;5513;50.580;8.818;2023-12-22T03:45:19;97603.59;;;4.70;100.00
10921;BME280;5513;50.580;8.818;2023-12-22T03:48:08;97606.28;;;4.56;100.00
10921;BME280;5513;50.580;8.818;2023-12-22T03:50:54;97619.50;;;4.54;100.00
10921;BME280;5513;50.580;8.818;2023-12-22T03:53:41;97602.94;;;4.54;100.00
10921;BME280;5513;50.580;8.818;2023-12-22T03:56:28;97608.50;;;4.62;100.00
10921;BME280;5513;50.580;8.818;2023-12-22T03:59:15;97605.69;;;4.65;100.00
10921;BME280;5513;50.580;8.818;2023-12-22T04:02:04;97611.03;;;4.64;100.00
10921;BME280;5513;50.580;8.818;2023-12-22T04:04:52;97609.66;;;4.58;100.00
10921;BME280;5513;50.580;8.818;2023-12-22T04:07:39;97629.56;;;4.60;100.00
10921;BME280;5513;50.580;8.818;2023-12-22T04:10:26;97638.09;;;4.64;100.00
10921;BME280;5513;50.580;8.818;2023-12-22T04:13:13;97627.94;;;4.72;100.00
10921;BME280;5513;50.580;8.818;2023-12-22T04:15:59;97639.00;;;4.63;100.00
10921;BME280;5513;50.580;8.818;2023-12-22T04:18:50;97607.47;;;4.65;100.00
10921;BME280;5513;50.580;8.818;2023-12-22T04:21:38;97648.03;;;4.86;100.00
10921;BME280;5513;50.580;8.818;2023-12-22T04:24:25;97644.91;;;4.67;100.00
10921;BME280;5513;50.580;8.818;2023-12-22T04:27:12;97649.44;;;4.65;100.00
10921;BME280;5513;50.580;8.818;2023-12-22T04:29:58;97640.16;;;4.86;100.00
10921;BME280;5513;50.580;8.818;2023-12-22T04:32:45;97652.38;;;4.73;100.00
10921;BME280;5513;50.580;8.818;2023-12-22T04:35:32;97630.56;;;4.45;100.00
10921;BME280;5513;50.580;8.818;2023-12-22T04:38:21;97622.78;;;4.44;100.00
10921;BME280;5513;50.580;8.818;2023-12-22T04:41:08;97627.00;;;4.46;100.00
10921;BME280;5513;50.580;8.818;2023-12-22T04:43:55;97604.88;;;4.50;100.00
10921;BME280;5513;50.580;8.818;2023-12-22T04:46:41;97627.16;;;4.57;100.00
10921;BME280;5513;50.580;8.818;2023-12-22T04:49:28;97607.03;;;4.58;100.00
10921;BME280;5513;50.580;8.818;2023-12-22T04:52:15;97632.19;;;4.60;100.00
10921;BME280;5513;50.580;8.818;2023-12-22T04:55:04;97655.41;;;4.67;100.00
10921;BME280;5513;50.580;8.818;2023-12-22T04:57:51;97642.28;;;4.67;100.00
10921;BME280;5513;50.580;8.818;2023-12-22T05:00:38;97633.22;;;4.58;100.00
10921;BME280;5513;50.580;8.818;2023-12-22T05:03:25;97636.91;;;4.55;100.00
10921;BME280;5513;50.580;8.818;2023-12-22T05:06:12;97659.84;;;4.52;100.00
10921;BME280;5513;50.580;8.818;2023-12-22T05:08:59;97659.31;;;4.47;100.00
10921;BME280;5513;50.580;8.818;2023-12-22T05:11:47;97643.00;;;4.42;100.00
10921;BME280;5513;50.580;8.818;2023-12-22T05:14:34;97631.91;;;4.38;100.00
10921;BME280;5513;50.580;8.818;2023-12-22T05:17:21;97621.63;;;4.35;100.00
10921;BME280;5513;50.580;8.818;2023-12-22T05:20:08;97618.63;;;4.27;100.00
10921;BME280;5513;50.580;8.818;2023-12-22T05:22:56;97632.09;;;4.21;100.00
10921;BME280;5513;50.580;8.818;2023-12-22T05:25:44;97633.53;;;4.12;100.00
10921;BME280;5513;50.580;8.818;2023-12-22T05:28:32;97634.47;;;4.11;100.00
10921;BME280;5513;50.580;8.818;2023-12-22T05:31:19;97641.59;;;4.09;100.00
10921;BME280;5513;50.580;8.818;2023-12-22T05:34:05;97636.81;;;4.01;100.00
10921;BME280;5513;50.580;8.818;2023-12-22T05:36:53;97645.03;;;4.10;100.00
10921;BME280;5513;50.580;8.818;2023-12-22T05:39:40;97656.28;;;3.97;100.00
10921;BME280;5513;50.580;8.818;2023-12-22T05:42:29;97665.81;;;3.98;100.00
10921;BME280;5513;50.580;8.818;2023-12-22T05:45:17;97662.38;;;3.98;100.00
10921;BME280;5513;50.580;8.818;2023-12-22T05:48:05;97672.06;;;4.10;100.00
10921;BME280;5513;50.580;8.818;2023-12-22T05:50:52;97678.47;;;4.06;100.00
10921;BME280;5513;50.580;8.818;2023-12-22T05:53:39;97690.50;;;4.23;100.00
10921;BME280;5513;50.580;8.818;2023-12-22T05:56:26;97685.72;;;4.29;100.00
10921;BME280;5513;50.580;8.818;2023-12-22T05:59:13;97671.03;;;4.13;100.00
10921;BME280;5513;50.580;8.818;2023-12-22T06:02:02;97657.19;;;4.25;100.00
10921;BME280;5513;50.580;8.818;2023-12-22T06:04:49;97669.91;;;4.31;100.00
10921;BME280;5513;50.580;8.818;2023-12-22T06:07:36;97660.03;;;4.49;100.00
10921;BME280;5513;50.580;8.818;2023-12-22T06:10:23;97668.75;;;4.49;100.00
10921;BME280;5513;50.580;8.818;2023-12-22T06:13:09;97678.19;;;4.52;100.00
10921;BME280;5513;50.580;8.818;2023-12-22T06:15:56;97685.56;;;4.59;100.00
10921;BME280;5513;50.580;8.818;2023-12-22T06:18:45;97687.81;;;4.66;100.00
10921;BME280;5513;50.580;8.818;2023-12-22T06:21:32;97680.97;;;4.90;100.00
10921;BME280;5513;50.580;8.818;2023-12-22T06:24:19;97696.00;;;5.01;100.00
10921;BME280;5513;50.580;8.818;2023-12-22T06:27:06;97676.03;;;5.12;100.00
10921;BME280;5513;50.580;8.818;2023-12-22T06:29:53;97683.66;;;5.42;100.00
10921;BME280;5513;50.580;8.818;2023-12-22T06:32:41;97675.38;;;5.61;100.00
10921;BME280;5513;50.580;8.818;2023-12-22T06:35:29;97670.53;;;5.81;100.00
10921;BME280;5513;50.580;8.818;2023-12-22T06:38:19;97680.09;;;5.82;100.00
10921;BME280;5513;50.580;8.818;2023-12-22T06:41:06;97678.22;;;5.84;100.00
10921;BME280;5513;50.580;8.818;2023-12-22T06:43:53;97702.22;;;5.92;100.00
10921;BME280;5513;50.580;8.818;2023-12-22T06:46:39;97711.03;;;6.03;100.00
10921;BME280;5513;50.580;8.818;2023-12-22T06:49:26;97693.38;;;5.93;100.00
10921;BME280;5513;50.580;8.818;2023-12-22T06:52:14;97702.31;;;5.90;100.00
10921;BME280;5513;50.580;8.818;2023-12-22T06:55:01;97711.03;;;5.91;100.00
10921;BME280;5513;50.580;8.818;2023-12-22T06:57:49;97716.66;;;5.85;100.00
10921;BME280;5513;50.580;8.818;2023-12-22T07:00:36;97713.19;;;5.84;100.00
10921;BME280;5513;50.580;8.818;2023-12-22T07:03:23;97720.25;;;5.84;100.00
10921;BME280;5513;50.580;8.818;2023-12-22T07:06:10;97732.84;;;5.79;100.00
10921;BME280;5513;50.580;8.818;2023-12-22T07:09:29;97736.94;;;5.83;100.00
10921;BME280;5513;50.580;8.818;2023-12-22T07:12:16;97728.00;;;5.85;100.00
10921;BME280;5513;50.580;8.818;2023-12-22T07:15:04;97736.38;;;5.92;100.00
10921;BME280;5513;50.580;8.818;2023-12-22T07:17:52;97729.31;;;5.92;100.00
10921;BME280;5513;50.580;8.818;2023-12-22T07:20:39;97740.66;;;5.93;100.00
10921;BME280;5513;50.580;8.818;2023-12-22T07:23:26;97747.25;;;5.86;100.00
10921;BME280;5513;50.580;8.818;2023-12-22T07:26:14;97755.69;;;5.91;100.00
10921;BME280;5513;50.580;8.818;2023-12-22T07:29:04;97767.31;;;5.87;100.00
10921;BME280;5513;50.580;8.818;2023-12-22T07:31:53;97751.97;;;5.81;100.00
10921;BME280;5513;50.580;8.818;2023-12-22T07:34:40;97758.47;;;5.75;100.00
10921;BME280;5513;50.580;8.818;2023-12-22T07:37:29;97760.59;;;5.70;100.00
10921;BME280;5513;50.580;8.818;2023-12-22T07:40:16;97767.69;;;5.68;100.00
10921;BME280;5513;50.580;8.818;2023-12-22T07:43:04;97766.13;;;5.65;100.00
10921;BME280;5513;50.580;8.818;2023-12-22T07:45:51;97772.22;;;5.66;100.00
10921;BME280;5513;50.580;8.818;2023-12-22T07:48:38;97770.44;;;5.66;100.00
10921;BME280;5513;50.580;8.818;2023-12-22T07:51:25;97786.00;;;5.69;100.00
10921;BME280;5513;50.580;8.818;2023-12-22T07:54:12;97800.22;;;5.80;100.00
10921;BME280;5513;50.580;8.818;2023-12-22T07:56:58;97802.06;;;5.92;100.00
10921;BME280;5513;50.580;8.818;2023-12-22T07:59:47;97808.78;;;5.96;100.00
10921;BME280;5513;50.580;8.818;2023-12-22T08:02:34;97807.53;;;6.01;100.00
10921;BME280;5513;50.580;8.818;2023-12-22T08:05:22;97794.28;;;6.03;100.00
10921;BME280;5513;50.580;8.818;2023-12-22T08:08:08;97806.81;;;6.12;100.00
10921;BME280;5513;50.580;8.818;2023-12-22T08:10:55;97814.78;;;6.11;100.00
10921;BME280;5513;50.580;8.818;2023-12-22T08:13:42;97807.44;;;6.16;100.00
10921;BME280;5513;50.580;8.818;2023-12-22T08:16:31;97788.41;;;6.12;100.00
10921;BME280;5513;50.580;8.818;2023-12-22T08:19:18;97785.16;;;6.21;100.00
10921;BME280;5513;50.580;8.818;2023-12-22T08:22:07;97775.97;;;6.27;100.00
10921;BME280;5513;50.580;8.818;2023-12-22T08:24:54;97782.84;;;6.29;100.00
10921;BME280;5513;50.580;8.818;2023-12-22T08:27:41;97783.03;;;6.39;100.00
10921;BME280;5513;50.580;8.818;2023-12-22T08:30:28;97788.72;;;6.33;100.00
10921;BME280;5513;50.580;8.818;2023-12-22T08:33:17;97786.63;;;6.38;100.00
10921;BME280;5513;50.580;8.818;2023-12-22T08:36:04;97772.94;;;6.33;100.00
10921;BME280;5513;50.580;8.818;2023-12-22T08:38:51;97786.09;;;6.33;100.00
10921;BME280;5513;50.580;8.818;2023-12-22T08:41:39;97777.78;;;6.39;100.00
10921;BME280;5513;50.580;8.818;2023-12-22T08:44:25;97785.69;;;6.39;100.00
10921;BME280;5513;50.580;8.818;2023-12-22T08:47:12;97789.00;;;6.54;100.00
10921;BME280;5513;50.580;8.818;2023-12-22T08:50:01;97792.81;;;6.50;100.00
10921;BME280;5513;50.580;8.818;2023-12-22T08:52:49;97784.47;;;6.56;100.00
10921;BME280;5513;50.580;8.818;2023-12-22T08:55:36;97775.66;;;6.57;100.00
10921;BME280;5513;50.580;8.818;2023-12-22T08:58:23;97767.97;;;6.54;100.00
10921;BME280;5513;50.580;8.818;2023-12-22T09:01:14;97771.88;;;6.61;100.00
10921;BME280;5513;50.580;8.818;2023-12-22T09:04:01;97770.50;;;6.68;100.00
10921;BME280;5513;50.580;8.818;2023-12-22T09:06:50;97772.84;;;6.84;100.00
10921;BME280;5513;50.580;8.818;2023-12-22T09:09:37;97754.97;;;6.89;100.00
10921;BME280;5513;50.580;8.818;2023-12-22T09:12:25;97749.09;;;6.85;100.00
10921;BME280;5513;50.580;8.818;2023-12-22T09:15:12;97762.69;;;6.79;100.00
10921;BME280;5513;50.580;8.818;2023-12-22T09:17:59;97754.25;;;6.87;100.00
10921;BME280;5513;50.580;8.818;2023-12-22T09:20:46;97760.47;;;6.86;100.00
10921;BME280;5513;50.580;8.818;2023-12-22T09:23:34;97767.69;;;6.95;100.00
10921;BME280;5513;50.580;8.818;2023-12-22T09:26:21;97765.97;;;6.94;100.00
10921;BME280;5513;50.580;8.818;2023-12-22T09:29:08;97762.13;;;6.87;100.00
10921;BME280;5513;50.580;8.818;2023-12-22T09:31:55;97770.16;;;6.85;100.00
10921;BME280;5513;50.580;8.818;2023-12-22T09:34:42;97771.28;;;6.81;100.00
10921;BME280;5513;50.580;8.818;2023-12-22T09:37:29;97771.63;;;6.77;100.00
10921;BME280;5513;50.580;8.818;2023-12-22T09:40:17;97774.22;;;6.89;100.00
10921;BME280;5513;50.580;8.818;2023-12-22T09:43:06;97776.06;;;6.76;100.00
10921;BME280;5513;50.580;8.818;2023-12-22T09:45:53;97778.03;;;6.73;100.00
10921;BME280;5513;50.580;8.818;2023-12-22T09:48:41;97770.53;;;6.92;100.00
10921;BME280;5513;50.580;8.818;2023-12-22T09:51:30;97765.31;;;7.03;100.00
10921;BME280;5513;50.580;8.818;2023-12-22T09:54:17;97767.88;;;7.05;100.00
10921;BME280;5513;50.580;8.818;2023-12-22T09:57:06;97771.41;;;7.40;100.00
10921;BME280;5513;50.580;8.818;2023-12-22T10:00:09;97753.16;;;7.26;100.00
10921;BME280;5513;50.580;8.818;2023-12-22T10:02:58;97760.03;;;7.16;100.00
10921;BME280;5513;50.580;8.818;2023-12-22T10:05:45;97764.91;;;7.09;100.00
10921;BME280;5513;50.580;8.818;2023-12-22T10:08:32;97767.28;;;7.12;100.00
10921;BME280;5513;50.580;8.818;2023-12-22T10:11:20;97759.28;;;7.14;100.00
10921;BME280;5513;50.580;8.818;2023-12-22T10:14:10;97757.16;;;7.19;100.00
10921;BME280;5513;50.580;8.818;2023-12-22T10:16:59;97744.69;;;7.10;100.00
10921;BME280;5513;50.580;8.818;2023-12-22T10:19:45;97749.94;;;7.10;100.00
10921;BME280;5513;50.580;8.818;2023-12-22T10:22:33;97738.91;;;7.05;100.00
10921;BME280;5513;50.580;8.818;2023-12-22T10:25:20;97722.06;;;7.07;100.00
10921;BME280;5513;50.580;8.818;2023-12-22T10:28:10;97721.69;;;7.12;100.00
10921;BME280;5513;50.580;8.818;2023-12-22T10:30:58;97718.06;;;7.02;100.00
10921;BME280;5513;50.580;8.818;2023-12-22T10:33:51;97719.91;;;6.88;100.00
10921;BME280;5513;50.580;8.818;2023-12-22T10:36:38;97710.66;;;6.83;100.00
10921;BME280;5513;50.580;8.818;2023-12-22T10:39:27;97720.34;;;6.82;100.00
10921;BME280;5513;50.580;8.818;2023-12-22T10:42:13;97731.59;;;6.84;100.00
10921;BME280;5513;50.580;8.818;2023-12-22T10:45:01;97723.50;;;6.75;100.00
10921;BME280;5513;50.580;8.818;2023-12-22T10:47:49;97722.59;;;6.76;100.00
10921;BME280;5513;50.580;8.818;2023-12-22T10:50:39;97713.66;;;6.66;100.00
10921;BME280;5513;50.580;8.818;2023-12-22T10:53:26;97708.81;;;6.72;100.00
10921;BME280;5513;50.580;8.818;2023-12-22T10:56:13;97695.34;;;6.77;100.00
10921;BME280;5513;50.580;8.818;2023-12-22T10:59:00;97694.03;;;6.82;100.00
10921;BME280;5513;50.580;8.818;2023-12-22T11:01:51;97691.19;;;6.85;100.00
10921;BME280;5513;50.580;8.818;2023-12-22T11:04:41;97688.78;;;6.82;100.00
10921;BME280;5513;50.580;8.818;2023-12-22T11:07:34;97681.72;;;6.83;100.00
10921;BME280;5513;50.580;8.818;2023-12-22T11:10:21;97679.19;;;6.81;100.00
10921;BME280;5513;50.580;8.818;2023-12-22T11:13:08;97677.69;;;6.90;100.00
10921;BME280;5513;50.580;8.818;2023-12-22T11:15:56;97677.25;;;6.96;100.00
10921;BME280;5513;50.580;8.818;2023-12-22T11:18:43;97663.63;;;7.02;100.00
10921;BME280;5513;50.580;8.818;2023-12-22T11:21:32;97657.31;;;7.05;100.00
10921;BME280;5513;50.580;8.818;2023-12-22T11:24:20;97658.88;;;7.07;100.00
10921;BME280;5513;50.580;8.818;2023-12-22T11:27:08;97664.03;;;7.09;100.00
10921;BME280;5513;50.580;8.818;2023-12-22T11:29:56;97651.09;;;7.06;100.00
10921;BME280;5513;50.580;8.818;2023-12-22T11:32:45;97659.16;;;7.15;100.00
10921;BME280;5513;50.580;8.818;2023-12-22T11:35:34;97651.63;;;7.22;100.00
10921;BME280;5513;50.580;8.818;2023-12-22T11:38:23;97652.53;;;7.34;100.00
10921;BME280;5513;50.580;8.818;2023-12-22T11:41:14;97643.06;;;7.42;100.00
10921;BME280;5513;50.580;8.818;2023-12-22T11:44:04;97641.88;;;7.35;100.00
10921;BME280;5513;50.580;8.818;2023-12-22T11:47:03;97632.38;;;7.33;100.00
10921;BME280;5513;50.580;8.818;2023-12-22T11:49:50;97620.66;;;7.37;100.00
10921;BME280;5513;50.580;8.818;2023-12-22T11:52:37;97625.09;;;7.36;100.00
10921;BME280;5513;50.580;8.818;2023-12-22T11:55:57;97618.66;;;7.52;100.00
10921;BME280;5513;50.580;8.818;2023-12-22T11:58:45;97617.47;;;7.56;100.00
10921;BME280;5513;50.580;8.818;2023-12-22T12:01:38;97624.69;;;7.65;100.00
10921;BME280;5513;50.580;8.818;2023-12-22T12:04:25;97623.84;;;7.75;100.00
10921;BME280;5513;50.580;8.818;2023-12-22T12:10:52;97614.53;;;7.83;100.00
10921;BME280;5513;50.580;8.818;2023-12-22T12:13:44;97609.72;;;7.77;100.00
10921;BME280;5513;50.580;8.818;2023-12-22T12:16:31;97603.00;;;7.72;100.00
10921;BME280;5513;50.580;8.818;2023-12-22T12:19:19;97613.78;;;7.81;100.00
10921;BME280;5513;50.580;8.818;2023-12-22T12:22:05;97590.69;;;7.84;100.00
10921;BME280;5513;50.580;8.818;2023-12-22T12:24:53;97616.31;;;7.93;100.00
10921;BME280;5513;50.580;8.818;2023-12-22T12:27:40;97589.25;;;7.91;100.00
10921;BME280;5513;50.580;8.818;2023-12-22T12:30:29;97591.75;;;7.93;100.00
10921;BME280;5513;50.580;8.818;2023-12-22T12:33:17;97578.56;;;7.93;100.00
10921;BME280;5513;50.580;8.818;2023-12-22T12:36:06;97579.16;;;7.96;100.00
10921;BME280;5513;50.580;8.818;2023-12-22T12:38:55;97642.56;;;8.06;100.00
10921;BME280;5513;50.580;8.818;2023-12-22T12:41:54;97681.97;;;7.96;100.00
10921;BME280;5513;50.580;8.818;2023-12-22T12:44:42;97626.69;;;7.50;100.00
10921;BME280;5513;50.580;8.818;2023-12-22T12:47:31;97642.69;;;7.36;100.00
10921;BME280;5513;50.580;8.818;2023-12-22T12:50:21;97675.09;;;7.25;100.00
10921;BME280;5513;50.580;8.818;2023-12-22T12:53:08;97642.66;;;7.25;100.00
10921;BME280;5513;50.580;8.818;2023-12-22T12:55:55;97628.44;;;7.38;100.00
10921;BME280;5513;50.580;8.818;2023-12-22T12:58:42;97637.63;;;7.33;100.00
10921;BME280;5513;50.580;8.818;2023-12-22T13:01:29;97630.41;;;7.47;100.00
10921;BME280;5513;50.580;8.818;2023-12-22T13:04:23;97631.50;;;7.67;100.00
10921;BME280;5513;50.580;8.818;2023-12-22T13:07:24;97622.78;;;7.89;100.00
10921;BME280;5513;50.580;8.818;2023-12-22T13:10:19;97622.75;;;7.78;100.00
10921;BME280;5513;50.580;8.818;2023-12-22T13:13:07;97620.13;;;7.78;100.00
10921;BME280;5513;50.580;8.818;2023-12-22T13:15:54;97614.28;;;7.86;100.00
10921;BME280;5513;50.580;8.818;2023-12-22T13:18:41;97608.63;;;7.79;100.00
10921;BME280;5513;50.580;8.818;2023-12-22T13:21:29;97606.13;;;7.89;100.00
10921;BME280;5513;50.580;8.818;2023-12-22T13:24:17;97604.69;;;7.85;100.00
10921;BME280;5513;50.580;8.818;2023-12-22T13:27:04;97602.91;;;7.85;100.00
10921;BME280;5513;50.580;8.818;2023-12-22T13:29:52;97593.66;;;8.36;100.00
10921;BME280;5513;50.580;8.818;2023-12-22T13:32:39;97608.72;;;8.45;100.00
10921;BME280;5513;50.580;8.818;2023-12-22T13:35:26;97582.97;;;8.37;100.00
10921;BME280;5513;50.580;8.818;2023-12-22T13:38:15;97579.22;;;8.28;100.00
10921;BME280;5513;50.580;8.818;2023-12-22T13:41:02;97570.88;;;8.35;100.00
10921;BME280;5513;50.580;8.818;2023-12-22T13:43:49;97580.44;;;8.24;100.00
10921;BME280;5513;50.580;8.818;2023-12-22T13:46:36;97572.41;;;8.37;100.00
10921;BME280;5513;50.580;8.818;2023-12-22T13:49:33;97558.38;;;8.37;100.00
10921;BME280;5513;50.580;8.818;2023-12-22T13:52:27;97573.03;;;8.41;100.00
10921;BME280;5513;50.580;8.818;2023-12-22T13:55:15;97580.09;;;8.40;100.00
10921;BME280;5513;50.580;8.818;2023-12-22T13:58:03;97575.16;;;8.47;100.00
10921;BME280;5513;50.580;8.818;2023-12-22T14:00:50;97570.19;;;8.65;100.00
10921;BME280;5513;50.580;8.818;2023-12-22T14:03:37;97565.25;;;8.71;100.00
10921;BME280;5513;50.580;8.818;2023-12-22T14:06:24;97563.72;;;8.69;100.00
10921;BME280;5513;50.580;8.818;2023-12-22T14:09:11;97562.44;;;8.52;100.00
10921;BME280;5513;50.580;8.818;2023-12-22T14:11:59;97568.81;;;8.49;100.00
10921;BME280;5513;50.580;8.818;2023-12-22T14:14:50;97586.09;;;8.42;100.00
10921;BME280;5513;50.580;8.818;2023-12-22T14:17:37;97581.66;;;8.43;100.00
10921;BME280;5513;50.580;8.818;2023-12-22T14:20:24;97591.59;;;8.39;100.00
10921;BME280;5513;50.580;8.818;2023-12-22T14:23:11;97592.06;;;8.33;100.00
10921;BME280;5513;50.580;8.818;2023-12-22T14:26:02;97589.19;;;8.47;100.00
10921;BME280;5513;50.580;8.818;2023-12-22T14:28:50;97591.19;;;8.55;100.00
10921;BME280;5513;50.580;8.818;2023-12-22T14:31:37;97585.81;;;8.45;100.00
10921;BME280;5513;50.580;8.818;2023-12-22T14:34:24;97596.13;;;8.48;100.00
10921;BME280;5513;50.580;8.818;2023-12-22T14:37:11;97602.16;;;8.50;100.00
10921;BME280;5513;50.580;8.818;2023-12-22T14:39:57;97607.41;;;8.50;100.00
10921;BME280;5513;50.580;8.818;2023-12-22T14:42:44;97612.09;;;8.47;100.00
10921;BME280;5513;50.580;8.818;2023-12-22T14:45:32;97630.78;;;8.55;100.00
10921;BME280;5513;50.580;8.818;2023-12-22T14:48:19;97630.91;;;8.53;100.00
10921;BME280;5513;50.580;8.818;2023-12-22T14:51:06;97611.22;;;8.57;100.00
10921;BME280;5513;50.580;8.818;2023-12-22T14:53:53;97607.03;;;8.55;100.00
10921;BME280;5513;50.580;8.818;2023-12-22T14:56:40;97601.00;;;8.64;100.00
10921;BME280;5513;50.580;8.818;2023-12-22T14:59:27;97604.13;;;8.58;100.00
10921;BME280;5513;50.580;8.818;2023-12-22T15:02:15;97606.28;;;8.64;100.00
10921;BME280;5513;50.580;8.818;2023-12-22T15:05:03;97620.44;;;8.63;100.00